Time;durP1;ratioP1;P1;durP2;ratioP2;P2;SDS_P1;SDS_P2;PMS_P1;PMS_P2;Temp;Humidity;BMP_temperature;BMP_pressure;BME280_temperature;BME280_humidity;BME280_pressure;Samples;Min_cycle;Max_cycle;Signal;HPM_P1;HPM_P2
2022/05/30 00:01:16;;;;;;;57.47;54.27;;;;;;;9.78;100.00;101575.51;1966894;72;26706;-72
2022/05/30 00:03:46;;;;;;;57.67;54.57;;;;;;;9.72;100.00;101577.38;1933579;73;26344;-72
2022/05/30 00:06:19;;;;;;;57.43;54.33;;;;;;;9.78;100.00;101582.45;1960776;73;26246;-73
2022/05/30 00:08:50;;;;;;;61.67;58.27;;;;;;;9.85;100.00;101583.90;1912050;74;26321;-71
2022/05/30 00:11:20;;;;;;;64.30;60.70;;;;;;;9.60;100.00;101579.48;1903083;74;26302;-73
2022/05/30 00:13:51;;;;;;;66.60;62.50;;;;;;;9.75;100.00;101586.59;1903098;74;26239;-71
2022/05/30 00:16:23;;;;;;;74.47;69.37;;;;;;;9.84;100.00;101584.19;1898967;74;26240;-73
2022/05/30 00:18:54;;;;;;;73.83;69.03;;;;;;;10.12;100.00;101589.44;1903256;74;26298;-71
2022/05/30 00:21:25;;;;;;;73.70;68.53;;;;;;;10.28;100.00;101585.71;1975413;72;26248;-71
2022/05/30 00:23:56;;;;;;;74.93;69.87;;;;;;;10.33;100.00;101588.53;1912068;74;26264;-71
2022/05/30 00:26:26;;;;;;;76.73;71.33;;;;;;;10.23;100.00;101587.59;1912607;74;26208;-72
2022/05/30 00:28:56;;;;;;;74.43;69.40;;;;;;;10.12;100.00;101589.98;1979560;72;26193;-73
2022/05/30 00:31:26;;;;;;;74.50;69.40;;;;;;;10.03;100.00;101593.23;1972044;72;26255;-72
2022/05/30 00:33:57;;;;;;;71.80;66.70;;;;;;;9.92;100.00;101587.87;1973566;72;26352;-71
2022/05/30 00:36:27;;;;;;;68.73;64.03;;;;;;;9.80;100.00;101585.23;1910665;74;26659;-71
2022/05/30 00:38:57;;;;;;;68.67;63.87;;;;;;;9.69;100.00;101582.08;1909376;74;26683;-71
2022/05/30 00:41:28;;;;;;;67.27;62.63;;;;;;;9.64;100.00;101575.63;1936810;74;27343;-73
2022/05/30 00:43:58;;;;;;;70.63;65.67;;;;;;;9.66;100.00;101574.29;1881823;76;26775;-71
2022/05/30 00:46:30;;;;;;;69.33;64.53;;;;;;;9.77;100.00;101573.28;1901786;75;26817;-73
2022/05/30 00:49:03;;;;;;;69.87;65.27;;;;;;;9.67;100.00;101575.13;1936245;74;26386;-72
2022/05/30 00:51:36;;;;;;;66.63;62.13;;;;;;;9.42;100.00;101582.05;1881204;76;26765;-71
2022/05/30 00:54:09;;;;;;;70.43;65.63;;;;;;;9.05;100.00;101581.89;1902710;75;26259;-73
2022/05/30 00:56:42;;;;;;;71.00;66.30;;;;;;;9.11;100.00;101573.09;1936169;74;26208;-73
2022/05/30 00:59:13;;;;;;;68.63;64.03;;;;;;;9.18;100.00;101572.34;1936140;74;26229;-72
2022/05/30 01:01:43;;;;;;;66.73;62.13;;;;;;;9.18;100.00;101565.96;1881238;76;26274;-72
2022/05/30 01:07:08;;;;;;;65.93;61.43;;;;;;;9.08;100.00;101564.73;1935959;73;26366;-71
2022/05/30 01:09:41;;;;;;;67.77;63.13;;;;;;;8.94;100.00;101562.63;1936087;74;26184;-72
2022/05/30 01:12:14;;;;;;;68.07;63.47;;;;;;;8.93;100.00;101565.94;1881292;76;26208;-71
2022/05/30 01:14:45;;;;;;;66.97;62.40;;;;;;;9.10;100.00;101563.10;1902647;75;26243;-71
2022/05/30 01:17:17;;;;;;;66.97;62.50;;;;;;;9.07;100.00;101563.05;1936073;74;26771;-71
2022/05/30 01:19:57;;;;;;;67.27;62.77;;;;;;;9.04;100.00;101566.89;1881265;76;26258;-70
2022/05/30 01:26:14;;;;;;;66.13;61.63;;;;;;;8.84;100.00;101550.85;2059771;69;32595;-73
2022/05/30 01:28:49;;;;;;;68.10;63.53;;;;;;;8.74;100.00;101560.39;2021444;71;26151;-73
2022/05/30 01:34:27;;;;;;;64.13;59.37;;;;;;;8.85;100.00;101552.53;2039213;69;33148;-72
2022/05/30 01:36:57;;;;;;;67.00;62.20;;;;;;;8.72;100.00;101550.14;2009489;70;26969;-71
2022/05/30 01:39:27;;;;;;;63.63;59.07;;;;;;;8.66;100.00;101549.22;1936955;73;26386;-71
2022/05/30 01:41:58;;;;;;;65.53;60.67;;;;;;;8.79;100.00;101538.86;1933423;73;26263;-71
2022/05/30 01:44:28;;;;;;;67.33;62.47;;;;;;;8.88;100.00;101541.47;1966446;72;26342;-70
2022/05/30 01:46:58;;;;;;;68.43;63.67;;;;;;;8.99;100.00;101541.87;1935583;73;26256;-72
2022/05/30 01:49:28;;;;;;;65.33;60.73;;;;;;;8.94;100.00;101537.69;1939935;73;26287;-71
2022/05/30 01:51:59;;;;;;;70.03;65.27;;;;;;;8.84;100.00;101534.23;1966552;72;26313;-72
2022/05/30 01:54:30;;;;;;;71.97;67.37;;;;;;;8.83;100.00;101531.16;1930954;73;26334;-71
2022/05/30 01:57:00;;;;;;;69.17;64.57;;;;;;;8.86;100.00;101521.48;2021170;71;26728;-72
2022/05/30 01:59:31;;;;;;;67.90;63.30;;;;;;;8.83;100.00;101520.63;1936495;73;26774;-71
2022/05/30 02:02:01;;;;;;;66.90;62.40;;;;;;;9.02;100.00;101510.91;1933571;73;26274;-71
2022/05/30 02:04:33;;;;;;;65.33;60.83;;;;;;;9.11;100.00;101506.59;1966546;72;26255;-72
2022/05/30 02:07:04;;;;;;;66.37;61.70;;;;;;;8.93;100.00;101499.98;1933110;73;26212;-72
2022/05/30 02:09:34;;;;;;;67.37;62.77;;;;;;;8.94;100.00;101505.25;1931314;73;26268;-72
2022/05/30 02:12:05;;;;;;;71.63;66.87;;;;;;;9.12;100.00;101513.23;1901686;75;26250;-70
2022/05/30 02:14:35;;;;;;;70.40;65.53;;;;;;;8.96;100.00;101516.92;1936541;74;26196;-71
2022/05/30 02:17:06;;;;;;;70.17;65.57;;;;;;;8.95;100.00;101520.78;1898460;74;26227;-70
2022/05/30 02:19:39;;;;;;;66.63;62.33;;;;;;;8.58;100.00;101519.20;1929967;73;26213;-72
2022/05/30 02:22:11;;;;;;;66.23;61.63;;;;;;;8.52;100.00;101513.28;1901696;74;26239;-71
2022/05/30 02:24:41;;;;;;;66.20;61.30;;;;;;;8.63;100.00;101506.81;1938994;73;26343;-72
2022/05/30 02:27:13;;;;;;;68.53;63.93;;;;;;;8.59;100.00;101513.12;1895038;74;26294;-72
2022/05/30 02:29:44;;;;;;;65.50;60.90;;;;;;;8.67;100.00;101516.28;1948779;73;26767;-72
2022/05/30 02:32:15;;;;;;;65.43;60.90;;;;;;;8.57;100.00;101516.67;1901487;73;26667;-71
2022/05/30 02:37:36;;;;;;;67.00;62.40;;;;;;;8.48;100.00;101516.28;1901599;75;26258;-71
2022/05/30 02:40:09;;;;;;;66.40;61.80;;;;;;;8.53;100.00;101509.98;1936670;74;26495;-72
2022/05/30 02:42:40;;;;;;;69.60;65.13;;;;;;;8.59;100.00;101507.03;1901646;75;26671;-70
2022/05/30 02:45:11;;;;;;;68.73;63.97;;;;;;;8.60;100.00;101507.30;1935973;74;26700;-72
2022/05/30 02:47:42;;;;;;;68.77;64.17;;;;;;;8.65;100.00;101499.61;1901069;75;26235;-71
2022/05/30 02:50:12;;;;;;;67.03;62.30;;;;;;;8.73;100.00;101501.94;1936085;74;26209;-72
2022/05/30 02:52:42;;;;;;;65.17;60.60;;;;;;;8.63;100.00;101499.05;1900998;75;26258;-72
2022/05/30 02:55:13;;;;;;;66.70;62.00;;;;;;;8.72;100.00;101500.28;1935918;74;26251;-71
2022/05/30 02:57:43;;;;;;;66.97;61.97;;;;;;;8.64;100.00;101502.12;1901029;75;26230;-72
2022/05/30 03:00:15;;;;;;;62.53;57.80;;;;;;;8.69;100.00;101493.30;1935902;74;26265;-71
2022/05/30 03:02:45;;;;;;;60.70;56.30;;;;;;;8.37;100.00;101487.33;1900943;75;26293;-71
2022/05/30 03:05:16;;;;;;;64.27;59.77;;;;;;;8.28;100.00;101500.73;1935980;74;26813;-71
2022/05/30 03:07:46;;;;;;;67.17;62.43;;;;;;;8.37;100.00;101495.09;1900998;75;26881;-71
2022/05/30 03:10:16;;;;;;;63.13;58.53;;;;;;;8.47;100.00;101495.21;1936037;74;26245;-72
2022/05/30 03:12:47;;;;;;;61.87;57.10;;;;;;;8.53;100.00;101499.73;1900960;75;26282;-72
2022/05/30 03:15:17;;;;;;;64.30;59.80;;;;;;;8.51;100.00;101497.80;1935885;74;26204;-71
2022/05/30 03:17:51;;;;;;;66.03;61.33;;;;;;;8.47;100.00;101499.94;1900924;75;26276;-73
2022/05/30 03:20:20;;;;;;;66.33;61.57;;;;;;;8.29;100.00;101507.98;1935821;74;26260;-71
2022/05/30 03:22:50;;;;;;;64.90;60.03;;;;;;;8.30;100.00;101503.30;1900917;75;26300;-71
2022/05/30 03:25:21;;;;;;;62.57;57.83;;;;;;;8.33;100.00;101498.62;1936059;74;26840;-71
2022/05/30 03:27:53;;;;;;;64.83;60.27;;;;;;;8.45;100.00;101502.95;1900899;75;26255;-71
2022/05/30 03:30:23;;;;;;;69.50;64.70;;;;;;;8.49;100.00;101500.50;1936029;74;26322;-72
2022/05/30 03:32:54;;;;;;;67.60;62.70;;;;;;;8.52;100.00;101498.06;1900856;74;26254;-71
2022/05/30 03:35:24;;;;;;;66.90;62.20;;;;;;;8.51;100.00;101499.72;1936114;74;26278;-72
2022/05/30 03:37:54;;;;;;;66.83;62.13;;;;;;;8.58;100.00;101498.44;1901063;75;26244;-72
2022/05/30 03:43:30;;;;;;;66.77;62.00;;;;;;;8.51;100.00;101493.64;2044197;69;32595;-73
2022/05/30 03:46:01;;;;;;;64.83;60.13;;;;;;;8.51;100.00;101500.56;1936907;73;26549;-72
2022/05/30 03:48:31;;;;;;;64.90;60.33;;;;;;;8.55;100.00;101501.72;1936320;73;26260;-73
2022/05/30 03:51:04;;;;;;;66.17;61.47;;;;;;;8.52;100.00;101498.06;1965420;72;26199;-72
2022/05/30 03:53:35;;;;;;;65.30;60.70;;;;;;;8.38;100.00;101500.92;1929739;73;26204;-73
2022/05/30 03:56:06;;;;;;;68.77;63.77;;;;;;;8.26;100.00;101490.45;1937005;74;26243;-71
2022/05/30 03:58:36;;;;;;;68.47;63.57;;;;;;;8.41;100.00;101486.56;1936583;73;26363;-72
2022/05/30 04:01:08;;;;;;;65.53;60.83;;;;;;;8.32;100.00;101487.25;1878857;73;935037;-72
2022/05/30 04:03:40;;;;;;;67.67;62.97;;;;;;;8.38;100.00;101483.47;1813963;78;26367;-72
2022/05/30 04:09:16;;;;;;;65.87;60.97;;;;;;;8.43;100.00;101476.63;2048446;69;33153;-73
2022/05/30 04:11:46;;;;;;;67.23;62.33;;;;;;;8.24;100.00;101485.73;1941251;73;26357;-72
2022/05/30 04:14:16;;;;;;;65.47;60.67;;;;;;;8.31;100.00;101477.27;1936931;73;26219;-72
2022/05/30 04:16:46;;;;;;;65.40;60.60;;;;;;;8.36;100.00;101475.95;1965180;72;26256;-72
2022/05/30 04:19:16;;;;;;;65.93;61.33;;;;;;;8.45;100.00;101478.04;1936857;74;26227;-73
2022/05/30 04:21:47;;;;;;;66.90;62.10;;;;;;;8.45;100.00;101475.81;1936855;73;26363;-72
2022/05/30 04:24:17;;;;;;;64.33;59.67;;;;;;;8.46;100.00;101468.64;1936268;73;26335;-69
2022/05/30 04:26:47;;;;;;;66.50;61.73;;;;;;;8.42;100.00;101466.64;1933240;73;26301;-73
2022/05/30 04:29:17;;;;;;;67.17;62.37;;;;;;;8.50;100.00;101460.66;1933704;73;26355;-73
2022/05/30 04:31:47;;;;;;;67.03;62.13;;;;;;;8.43;100.00;101466.94;1936795;74;26257;-73
2022/05/30 04:34:18;;;;;;;67.33;62.63;;;;;;;8.38;100.00;101456.64;1933274;73;26219;-72
2022/05/30 04:36:48;;;;;;;67.63;62.73;;;;;;;8.63;100.00;101458.89;1936787;74;26184;-73
2022/05/30 04:39:18;;;;;;;65.37;60.67;;;;;;;8.67;100.00;101455.36;1929688;73;26438;-72
2022/05/30 04:41:48;;;;;;;66.13;61.40;;;;;;;8.77;100.00;101461.55;1933222;73;26360;-71
2022/05/30 04:44:19;;;;;;;68.03;63.03;;;;;;;8.98;100.00;101455.17;1938034;73;26294;-73
2022/05/30 04:47:01;;;;;;;67.47;62.70;;;;;;;8.96;100.00;101451.81;1937544;73;26217;-71
2022/05/30 04:49:33;;;;;;;71.27;66.27;;;;;;;8.92;100.00;101451.20;1967685;72;26262;-72
2022/05/30 04:52:07;;;;;;;68.77;63.80;;;;;;;9.09;100.00;101452.79;1933500;73;26818;-70
2022/05/30 04:54:41;;;;;;;69.43;64.73;;;;;;;9.09;100.00;101445.02;1943052;73;26299;-70
2022/05/30 04:57:11;;;;;;;68.67;63.87;;;;;;;9.17;100.00;101441.78;1936830;73;26679;-71
2022/05/30 04:59:43;;;;;;;67.07;62.20;;;;;;;9.19;100.00;101440.14;1934933;73;26676;-71
2022/05/30 05:02:17;;;;;;;70.07;65.43;;;;;;;9.26;100.00;101437.44;1937989;73;26338;-71
2022/05/30 05:04:47;;;;;;;67.90;63.20;;;;;;;9.27;100.00;101439.12;1933725;73;26220;-72
2022/05/30 05:07:18;;;;;;;68.60;63.80;;;;;;;9.58;100.00;101445.21;1933526;72;26734;-71
2022/05/30 05:09:52;;;;;;;70.17;65.20;;;;;;;9.55;100.00;101445.75;1930921;74;26236;-72
2022/05/30 05:12:23;;;;;;;66.90;62.27;;;;;;;9.68;100.00;101438.08;1930923;74;26690;-71
2022/05/30 05:14:53;;;;;;;67.60;62.70;;;;;;;9.64;100.00;101431.39;1930797;74;26180;-72
2022/05/30 05:17:24;;;;;;;65.70;60.97;;;;;;;9.83;100.00;101429.89;1931069;74;26278;-71
2022/05/30 05:19:55;;;;;;;68.80;64.00;;;;;;;9.73;100.00;101423.71;1930172;74;26185;-72
2022/05/30 05:22:25;;;;;;;69.13;64.33;;;;;;;9.82;100.00;101430.98;1930136;74;26251;-71
2022/05/30 05:24:55;;;;;;;67.90;63.30;;;;;;;9.79;100.00;101430.98;1930238;74;26185;-72
2022/05/30 05:27:25;;;;;;;72.60;67.70;;;;;;;9.82;100.00;101434.61;1930206;74;26288;-71
2022/05/30 05:29:56;;;;;;;70.73;65.93;;;;;;;9.88;100.00;101434.91;1930196;74;26333;-71
2022/05/30 05:32:26;;;;;;;70.40;65.77;;;;;;;9.98;100.00;101434.16;1930284;74;26224;-71
2022/05/30 05:34:58;;;;;;;69.93;65.43;;;;;;;10.11;100.00;101434.23;1930245;74;26612;-72
2022/05/30 05:37:30;;;;;;;68.93;64.27;;;;;;;9.94;100.00;101438.56;1929921;74;26664;-71
2022/05/30 05:40:00;;;;;;;70.23;65.73;;;;;;;9.96;100.00;101441.92;1930260;74;26276;-70
2022/05/30 05:42:30;;;;;;;70.30;65.90;;;;;;;9.94;100.00;101435.79;1930248;74;26372;-72
2022/05/30 05:45:01;;;;;;;71.43;66.83;;;;;;;9.88;100.00;101440.45;1930094;74;26813;-71
2022/05/30 05:47:31;;;;;;;72.47;67.80;;;;;;;9.97;100.00;101426.92;1930054;74;26288;-71
2022/05/30 05:50:02;;;;;;;68.83;64.23;;;;;;;10.02;100.00;101433.90;1930062;74;26189;-72
2022/05/30 05:52:32;;;;;;;69.03;64.43;;;;;;;9.89;100.00;101431.03;1930135;74;26376;-71
2022/05/30 05:55:03;;;;;;;70.80;65.93;;;;;;;10.01;100.00;101429.48;1930230;74;26394;-72
2022/05/30 05:57:33;;;;;;;71.97;67.37;;;;;;;10.03;100.00;101421.70;1930131;74;26827;-72
2022/05/30 06:00:04;;;;;;;69.07;64.47;;;;;;;10.12;100.00;101427.04;1930077;74;26318;-71
2022/05/30 06:02:34;;;;;;;67.70;63.17;;;;;;;10.10;100.00;101428.42;1930269;74;26839;-70
2022/05/30 06:05:06;;;;;;;69.17;64.57;;;;;;;10.14;100.00;101422.62;1930255;74;26313;-71
2022/05/30 06:07:36;;;;;;;68.67;64.17;;;;;;;10.23;100.00;101423.78;1930008;74;26342;-72
2022/05/30 06:10:09;;;;;;;70.93;66.13;;;;;;;10.15;100.00;101422.88;1930095;74;26205;-71
2022/05/30 06:12:42;;;;;;;68.50;64.00;;;;;;;10.27;100.00;101422.17;1930295;74;26237;-70
2022/05/30 06:15:15;;;;;;;69.80;65.13;;;;;;;10.28;100.00;101417.72;1930160;74;26286;-72
2022/05/30 06:17:46;;;;;;;69.07;64.57;;;;;;;10.39;100.00;101422.79;1930211;74;26240;-72
2022/05/30 06:20:18;;;;;;;71.00;66.57;;;;;;;10.51;100.00;101419.23;1930230;74;26185;-71
2022/05/30 06:22:49;;;;;;;70.93;66.43;;;;;;;10.59;100.00;101413.15;1930282;74;26299;-72
2022/05/30 06:25:19;;;;;;;67.90;63.43;;;;;;;10.50;100.00;101411.45;1930293;74;26716;-72
2022/05/30 06:27:49;;;;;;;68.20;63.67;;;;;;;10.49;100.00;101411.16;1930164;74;26317;-71
2022/05/30 06:30:20;;;;;;;70.97;66.37;;;;;;;10.45;100.00;101416.13;1930067;74;26318;-72
2022/05/30 06:32:50;;;;;;;69.63;65.23;;;;;;;10.54;100.00;101416.45;1930107;74;26365;-72
2022/05/30 06:35:20;;;;;;;68.03;63.73;;;;;;;10.52;100.00;101408.41;1930058;74;26248;-72
2022/05/30 06:37:50;;;;;;;69.83;65.23;;;;;;;10.54;100.00;101414.52;1930062;74;26288;-71
2022/05/30 06:40:21;;;;;;;69.10;64.70;;;;;;;10.56;100.00;101411.47;1930294;74;26262;-72
2022/05/30 06:42:51;;;;;;;71.83;67.43;;;;;;;10.61;100.00;101407.33;1930174;74;26669;-70
2022/05/30 06:45:21;;;;;;;68.83;64.63;;;;;;;10.70;100.00;101406.51;1930145;74;26772;-70
2022/05/30 06:47:51;;;;;;;69.03;64.43;;;;;;;10.84;100.00;101409.62;1929957;74;26289;-71
2022/05/30 06:50:22;;;;;;;70.93;66.40;;;;;;;10.87;100.00;101407.13;1930189;74;26276;-72
2022/05/30 06:52:53;;;;;;;70.47;65.93;;;;;;;10.88;100.00;101409.35;1930044;74;26299;-72
2022/05/30 06:55:23;;;;;;;69.30;64.70;;;;;;;10.93;100.00;101407.43;1930060;74;26619;-72
2022/05/30 07:00:42;;;;;;;68.73;64.10;;;;;;;10.88;100.00;101417.69;1930182;74;26201;-71
2022/05/30 07:03:12;;;;;;;70.33;65.63;;;;;;;11.00;100.00;101417.44;1930213;74;26251;-72
2022/05/30 07:05:45;;;;;;;70.47;65.77;;;;;;;10.93;100.00;101417.70;1930088;74;26695;-72
2022/05/30 07:08:15;;;;;;;71.70;67.10;;;;;;;10.98;100.00;101422.45;1929963;74;26367;-72
2022/05/30 07:10:46;;;;;;;68.53;64.20;;;;;;;11.03;100.00;101416.91;1929931;74;26320;-71
2022/05/30 07:13:17;;;;;;;70.33;65.90;;;;;;;11.16;100.00;101414.99;1930100;74;26274;-71
2022/05/30 07:15:49;;;;;;;69.50;65.10;;;;;;;11.10;100.00;101409.97;1930088;74;26185;-71
2022/05/30 07:18:20;;;;;;;66.20;62.00;;;;;;;11.23;100.00;101414.16;1930243;74;26687;-72
2022/05/30 07:24:02;;;;;;;70.10;65.80;;;;;;;11.42;100.00;101403.59;2049100;69;32752;-71
2022/05/30 07:26:32;;;;;;;67.40;63.03;;;;;;;11.46;100.00;101405.84;2013245;70;26274;-71
2022/05/30 07:29:02;;;;;;;66.03;61.77;;;;;;;11.39;100.00;101404.71;1953339;73;26346;-72
2022/05/30 07:31:32;;;;;;;67.07;62.80;;;;;;;11.52;100.00;101400.55;1940909;73;26286;-72
2022/05/30 07:34:03;;;;;;;65.67;61.63;;;;;;;11.48;100.00;101401.66;1964969;72;26252;-72
2022/05/30 07:36:33;;;;;;;67.27;63.33;;;;;;;11.58;100.00;101402.22;1936346;73;26334;-71
2022/05/30 07:39:04;;;;;;;66.53;62.33;;;;;;;11.72;100.00;101400.59;2016543;70;26280;-71
2022/05/30 07:41:35;;;;;;;68.70;64.50;;;;;;;11.82;100.00;101399.17;1929567;73;26278;-72
2022/05/30 07:44:07;;;;;;;66.00;61.67;;;;;;;11.76;100.00;101396.97;2013856;71;26187;-71
2022/05/30 07:46:39;;;;;;;70.93;66.47;;;;;;;11.62;100.00;101398.61;2012137;70;26193;-72
2022/05/30 07:49:10;;;;;;;66.90;62.80;;;;;;;11.73;100.00;101400.29;1940397;73;26674;-72
2022/05/30 07:51:42;;;;;;;68.30;64.07;;;;;;;11.77;100.00;101401.40;1933429;73;26389;-70
2022/05/30 07:54:13;;;;;;;69.00;64.60;;;;;;;11.80;100.00;101402.25;1933879;73;26722;-71
2022/05/30 07:56:45;;;;;;;67.77;63.57;;;;;;;11.80;100.00;101394.45;1936675;74;26260;-71
2022/05/30 07:59:15;;;;;;;66.13;61.93;;;;;;;11.95;100.00;101388.02;1965438;72;26298;-71
2022/05/30 08:01:45;;;;;;;66.27;62.47;;;;;;;11.95;100.00;101395.81;1936937;73;26709;-71
2022/05/30 08:04:16;;;;;;;66.73;62.83;;;;;;;11.90;100.00;101384.68;1937049;74;26179;-71
2022/05/30 08:06:46;;;;;;;67.27;63.27;;;;;;;12.15;100.00;101390.19;1956039;72;26832;-71
2022/05/30 08:09:16;;;;;;;65.33;61.57;;;;;;;12.18;100.00;101390.20;1938470;73;26271;-71
2022/05/30 08:11:47;;;;;;;64.47;60.77;;;;;;;12.22;100.00;101388.52;1980065;72;26356;-71
2022/05/30 08:14:17;;;;;;;66.67;62.57;;;;;;;12.32;100.00;101388.49;1910423;74;26655;-72
2022/05/30 08:16:47;;;;;;;64.47;60.53;;;;;;;12.39;100.00;101390.97;1931034;74;26668;-71
2022/05/30 08:19:17;;;;;;;62.87;59.30;;;;;;;12.52;100.00;101387.02;1900754;74;26234;-70
2022/05/30 08:21:48;;;;;;;65.80;62.00;;;;;;;12.41;100.00;101382.58;1931229;74;26305;-72
2022/05/30 08:24:18;;;;;;;63.37;59.60;;;;;;;12.48;100.00;101383.69;1893032;74;26158;-72
2022/05/30 08:26:48;;;;;;;61.83;58.23;;;;;;;12.66;100.00;101382.47;1881717;76;26210;-71
2022/05/30 08:29:28;;;;;;;61.13;57.73;;;;;;;12.82;100.00;101378.23;1936795;74;26265;-71
2022/05/30 08:31:58;;;;;;;63.70;60.10;;;;;;;12.90;100.00;101380.41;1936746;74;26192;-70
2022/05/30 08:34:28;;;;;;;61.53;58.03;;;;;;;13.03;100.00;101382.00;1930435;74;26256;-71
2022/05/30 08:37:01;;;;;;;60.57;57.17;;;;;;;13.14;100.00;101378.04;1936069;74;26302;-72
2022/05/30 08:45:27;;;;;;;58.17;54.97;;;;;;;13.56;100.00;101364.86;2052006;69;32669;-70
2022/05/30 08:47:59;;;;;;;55.57;52.47;;;;;;;13.62;100.00;101367.06;1933625;73;26792;-70
2022/05/30 08:53:52;;;;;;;54.63;51.63;;;;;;;13.90;100.00;101353.68;2059889;69;32685;-71
2022/05/30 08:56:26;;;;;;;52.83;50.03;;;;;;;13.97;100.00;101360.30;2011407;70;26396;-72
2022/05/30 08:59:03;;;;;;;48.53;46.13;;;;;;;14.09;100.00;101348.98;2015637;70;26964;-73
2022/05/30 09:01:37;;;;;;;45.40;43.13;;;;;;;14.23;100.00;101350.50;2013433;70;26283;-72
2022/05/30 09:04:16;;;;;;;46.20;43.90;;;;;;;14.32;100.00;101349.28;2011666;70;26278;-71
2022/05/30 09:06:47;;;;;;;43.00;40.80;;;;;;;14.53;100.00;101347.36;1999182;70;26298;-71
2022/05/30 09:12:30;;;;;;;39.13;37.27;;;;;;;14.56;100.00;101336.97;2051674;69;33116;-71
2022/05/30 09:15:03;;;;;;;37.40;35.60;;;;;;;14.68;100.00;101341.28;2018121;70;26715;-71
2022/05/30 09:17:37;;;;;;;39.07;37.27;;;;;;;14.68;100.00;101337.09;1928969;73;26212;-72
2022/05/30 09:20:12;;;;;;;37.87;36.13;;;;;;;14.72;100.00;101333.98;1938368;73;26227;-71
2022/05/30 09:26:00;;;;;;;36.03;34.23;;;;;;;14.96;100.00;101326.34;2058709;69;33183;-72
2022/05/30 09:28:33;;;;;;;34.43;32.77;;;;;;;15.06;100.00;101327.56;2011119;70;26277;-71
2022/05/30 09:31:13;;;;;;;31.60;30.10;;;;;;;15.24;100.00;101328.12;1936053;73;26264;-72
2022/05/30 09:33:46;;;;;;;35.90;34.00;;;;;;;15.35;100.00;101317.60;1923841;73;26985;-72
2022/05/30 09:36:19;;;;;;;33.87;32.37;;;;;;;15.55;100.00;101314.47;2023191;71;26284;-71
2022/05/30 09:38:52;;;;;;;28.67;27.20;;;;;;;15.88;100.00;101309.64;1930676;73;26208;-72
2022/05/30 09:41:25;;;;;;;29.40;27.90;;;;;;;15.88;100.00;101310.48;1933278;73;26648;-71
2022/05/30 09:43:58;;;;;;;29.47;28.03;;;;;;;15.89;100.00;101307.11;1936325;73;26830;-71
2022/05/30 09:46:33;;;;;;;26.60;25.40;;;;;;;16.00;100.00;101299.35;1968930;72;26632;-71
2022/05/30 09:49:09;;;;;;;27.60;26.30;;;;;;;15.85;100.00;101301.30;1940081;73;26301;-71
2022/05/30 09:51:43;;;;;;;26.90;25.70;;;;;;;15.56;100.00;101299.91;1967306;72;26272;-71
2022/05/30 09:54:15;;;;;;;25.73;24.63;;;;;;;15.55;100.00;101301.87;1940460;73;26293;-71
2022/05/30 09:56:47;;;;;;;28.67;27.47;;;;;;;15.51;100.00;101299.98;1934878;73;26288;-71
2022/05/30 09:59:36;;;;;;;26.87;25.67;;;;;;;15.48;100.00;101300.85;1939181;73;26287;-72
2022/05/30 10:02:14;;;;;;;26.07;24.87;;;;;;;15.47;100.00;101300.58;1933314;73;26695;-71
2022/05/30 10:04:45;;;;;;;25.33;24.10;;;;;;;15.27;100.00;101298.71;1953586;72;26212;-71
2022/05/30 10:07:18;;;;;;;27.10;25.70;;;;;;;15.04;100.00;101297.11;1904627;73;26270;-72
2022/05/30 10:09:57;;;;;;;28.57;27.07;;;;;;;14.94;100.00;101296.42;1902823;74;26340;-72
2022/05/30 10:15:42;;;;;;;30.40;28.97;;;;;;;15.09;100.00;101299.00;2043776;69;32585;-69
2022/05/30 10:18:29;;;;;;;30.10;28.67;;;;;;;15.04;100.00;101293.48;2017785;71;26195;-71
2022/05/30 10:21:09;;;;;;;27.33;25.93;;;;;;;15.17;100.00;101301.10;2007824;70;26285;-71
2022/05/30 10:29:43;;;;;;;24.33;23.23;;;;;;;15.84;100.00;101281.99;2018540;70;26385;-72
2022/05/30 10:35:26;;;;;;;23.00;21.90;;;;;;;15.76;100.00;101282.72;2048519;69;33189;-70
2022/05/30 10:41:36;;;;;;;22.10;21.00;;;;;;;15.52;100.00;101286.26;2037312;69;32659;-71
2022/05/30 10:47:18;;;;;;;21.30;19.97;;;;;;;15.45;100.00;101290.81;2042780;69;32748;-71
2022/05/30 10:49:51;;;;;;;23.23;22.23;;;;;;;15.40;100.00;101295.13;2014237;70;26207;-71
2022/05/30 10:55:32;;;;;;;23.57;22.37;;;;;;;15.48;100.00;101298.62;2047066;69;32459;-71
2022/05/30 10:58:04;;;;;;;20.53;19.33;;;;;;;15.52;100.00;101289.06;1944115;72;26290;-72
2022/05/30 11:00:38;;;;;;;20.80;19.80;;;;;;;15.53;100.00;101294.93;1930295;73;26220;-71
2022/05/30 11:03:12;;;;;;;21.17;20.17;;;;;;;15.61;100.00;101290.84;2011810;70;26257;-71
2022/05/30 11:05:46;;;;;;;26.77;25.47;;;;;;;15.57;100.00;101290.38;2009684;70;26669;-72
2022/05/30 11:11:28;;;;;;;40.20;38.30;;;;;;;14.95;100.00;101294.73;2045200;69;32572;-71
2022/05/30 11:17:10;;;;;;;46.70;44.40;;;;;;;14.71;100.00;101299.59;2052269;69;33090;-73
2022/05/30 11:22:58;;;;;;;70.20;65.70;;;;;;;14.41;100.00;101338.59;2033277;69;32586;-71
2022/05/30 11:25:33;;;;;;;68.93;64.33;;;;;;;13.48;100.00;101356.28;2006027;70;26277;-70
2022/05/30 11:28:07;;;;;;;66.67;61.93;;;;;;;12.64;100.00;101353.23;2014978;71;26241;-70
2022/05/30 11:30:44;;;;;;;70.73;65.63;;;;;;;12.53;100.00;101352.47;2015756;70;26274;-71
2022/05/30 11:33:36;;;;;;;70.97;65.57;;;;;;;12.45;100.00;101348.05;2011409;70;26219;-71
2022/05/30 11:36:12;;;;;;;70.40;65.10;;;;;;;12.27;100.00;101350.91;2015883;70;26309;-71
2022/05/30 11:38:53;;;;;;;66.37;61.37;;;;;;;12.38;100.00;101339.98;2015780;70;26268;-72
2022/05/30 11:41:40;;;;;;;72.83;67.47;;;;;;;12.35;100.00;101331.36;2014756;70;26293;-70
2022/05/30 11:47:56;;;;;;;66.33;61.23;;;;;;;12.55;100.00;101348.81;2043717;69;32650;-70
2022/05/30 11:54:03;;;;;;;68.97;63.73;;;;;;;12.64;100.00;101342.08;2060036;69;32643;-71
2022/05/30 11:56:37;;;;;;;64.60;59.30;;;;;;;12.84;100.00;101346.14;2029670;70;26270;-70
2022/05/30 11:59:33;;;;;;;67.73;62.47;;;;;;;13.01;100.00;101344.34;2021531;70;26269;-72
2022/05/30 12:02:10;;;;;;;68.80;63.80;;;;;;;13.02;100.00;101348.25;1995037;70;26244;-72
2022/05/30 12:05:13;;;;;;;69.53;64.63;;;;;;;12.82;100.00;101347.56;2022696;70;26276;-72
2022/05/30 12:07:59;;;;;;;64.87;59.97;;;;;;;13.03;100.00;101344.34;1988870;71;26229;-71
2022/05/30 12:10:34;;;;;;;64.33;59.13;;;;;;;13.30;100.00;101351.44;1988073;72;26762;-72
2022/05/30 12:13:18;;;;;;;64.80;59.80;;;;;;;13.20;100.00;101348.16;1989029;72;26364;-71
2022/05/30 12:16:05;;;;;;;67.97;63.07;;;;;;;13.32;100.00;101351.97;1981900;72;26194;-71
2022/05/30 12:24:40;;;;;;;65.40;60.40;;;;;;;13.74;100.00;101344.33;1909305;74;26204;-72
2022/05/30 12:27:36;;;;;;;64.20;59.30;;;;;;;13.89;100.00;101343.62;1903554;75;26235;-71
2022/05/30 12:30:18;;;;;;;65.60;60.50;;;;;;;13.73;100.00;101339.89;1894755;74;26280;-71
2022/05/30 12:32:48;;;;;;;66.90;61.90;;;;;;;13.93;100.00;101342.47;1930091;74;26279;-72
2022/05/30 12:35:29;;;;;;;65.00;60.10;;;;;;;13.81;100.00;101336.45;1931873;74;26294;-71
2022/05/30 12:41:26;;;;;;;66.53;61.63;;;;;;;14.24;100.00;101325.63;2060140;69;33167;-71
2022/05/30 12:43:57;;;;;;;63.77;59.07;;;;;;;14.28;100.00;101328.66;2009318;70;26289;-71
2022/05/30 12:46:29;;;;;;;68.80;64.00;;;;;;;14.52;100.00;101321.09;2015835;70;26359;-71
2022/05/30 12:49:06;;;;;;;66.40;61.60;;;;;;;14.76;100.00;101307.87;2018337;70;26686;-71
2022/05/30 12:52:03;;;;;;;66.33;61.53;;;;;;;14.86;100.00;101311.09;2032881;70;26249;-71
2022/05/30 12:58:08;;;;;;;67.07;62.27;;;;;;;14.75;100.00;101290.02;2060076;69;32646;-71
2022/05/30 13:01:11;;;;;;;67.00;62.20;;;;;;;14.98;100.00;101303.08;1948318;73;26179;-70